sensor_id;sensor_type;location;lat;lon;timestamp;pressure;altitude;pressure_sealevel;temperature
70123;BMP280;57489;37.404;24.920;2024-01-15T00:02:34;100171.97;;;17.87
70123;BMP280;57489;37.404;24.920;2024-01-15T00:07:37;100174.75;;;17.82
70123;BMP280;57489;37.404;24.920;2024-01-15T00:12:39;100185.81;;;17.75
70123;BMP280;57489;37.404;24.920;2024-01-15T00:17:41;100189.06;;;17.72
70123;BMP280;57489;37.404;24.920;2024-01-15T00:22:44;100175.59;;;17.69
70123;BMP280;57489;37.404;24.920;2024-01-15T00:27:46;100185.28;;;17.65
70123;BMP280;57489;37.404;24.920;2024-01-15T00:32:48;100182.75;;;17.60
70123;BMP280;57489;37.404;24.920;2024-01-15T00:37:51;100175.84;;;17.59
70123;BMP280;57489;37.404;24.920;2024-01-15T00:42:53;100181.78;;;17.55
70123;BMP280;57489;37.404;24.920;2024-01-15T00:47:55;100175.19;;;17.53
70123;BMP280;57489;37.404;24.920;2024-01-15T00:53:01;100172.53;;;17.53
70123;BMP280;57489;37.404;24.920;2024-01-15T00:58:03;100175.28;;;17.48
70123;BMP280;57489;37.404;24.920;2024-01-15T01:03:05;100175.91;;;17.45
70123;BMP280;57489;37.404;24.920;2024-01-15T01:08:08;100175.41;;;17.43
70123;BMP280;57489;37.404;24.920;2024-01-15T01:13:10;100178.66;;;17.40
70123;BMP280;57489;37.404;24.920;2024-01-15T01:18:12;100172.06;;;17.37
70123;BMP280;57489;37.404;24.920;2024-01-15T01:23:16;100163.66;;;17.35
70123;BMP280;57489;37.404;24.920;2024-01-15T01:28:18;100161.03;;;17.35
70123;BMP280;57489;37.404;24.920;2024-01-15T01:33:20;100156.78;;;17.34
70123;BMP280;57489;37.404;24.920;2024-01-15T01:38:24;100150.97;;;17.32
70123;BMP280;57489;37.404;24.920;2024-01-15T01:43:26;100140.69;;;17.31
70123;BMP280;57489;37.404;24.920;2024-01-15T01:48:30;100144.72;;;17.28
70123;BMP280;57489;37.404;24.920;2024-01-15T01:53:34;100144.72;;;17.28
70123;BMP280;57489;37.404;24.920;2024-01-15T01:58:38;100132.53;;;17.27
70123;BMP280;57489;37.404;24.920;2024-01-15T02:03:40;100129.88;;;17.27
70123;BMP280;57489;37.404;24.920;2024-01-15T02:08:44;100124.91;;;17.25
70123;BMP280;57489;37.404;24.920;2024-01-15T02:13:46;100132.06;;;17.25
70123;BMP280;57489;37.404;24.920;2024-01-15T02:18:48;100135.28;;;17.22
70123;BMP280;57489;37.404;24.920;2024-01-15T02:23:51;100137.47;;;17.20
70123;BMP280;57489;37.404;24.920;2024-01-15T02:28:53;100134.31;;;17.18
70123;BMP280;57489;37.404;24.920;2024-01-15T02:33:55;100130.41;;;17.15
70123;BMP280;57489;37.404;24.920;2024-01-15T02:38:58;100125.69;;;17.12
70123;BMP280;57489;37.404;24.920;2024-01-15T02:44:00;100121.19;;;17.13
70123;BMP280;57489;37.404;24.920;2024-01-15T02:49:02;100125.53;;;17.09
70123;BMP280;57489;37.404;24.920;2024-01-15T02:54:06;100113.34;;;17.08
70123;BMP280;57489;37.404;24.920;2024-01-15T02:59:07;100115.50;;;17.05
70123;BMP280;57489;37.404;24.920;2024-01-15T03:04:09;100118.13;;;17.05
70123;BMP280;57489;37.404;24.920;2024-01-15T03:09:13;100106.00;;;17.04
70123;BMP280;57489;37.404;24.920;2024-01-15T03:14:15;100121.13;;;17.04
70123;BMP280;57489;37.404;24.920;2024-01-15T03:19:16;100120.03;;;17.05
70123;BMP280;57489;37.404;24.920;2024-01-15T03:24:20;100112.41;;;17.03
70123;BMP280;57489;37.404;24.920;2024-01-15T03:29:22;100119.84;;;17.01
70123;BMP280;57489;37.404;24.920;2024-01-15T03:34:24;100123.06;;;16.98
70123;BMP280;57489;37.404;24.920;2024-01-15T03:39:28;100113.56;;;16.97
70123;BMP280;57489;37.404;24.920;2024-01-15T03:44:29;100117.88;;;16.93
70123;BMP280;57489;37.404;24.920;2024-01-15T03:49:31;100120.03;;;16.91
70123;BMP280;57489;37.404;24.920;2024-01-15T03:54:35;100129.06;;;16.90
70123;BMP280;57489;37.404;24.920;2024-01-15T03:59:36;100132.03;;;16.89
70123;BMP280;57489;37.404;24.920;2024-01-15T04:04:41;100126.25;;;16.87
70123;BMP280;57489;37.404;24.920;2024-01-15T04:09:44;100133.41;;;16.86
70123;BMP280;57489;37.404;24.920;2024-01-15T04:14:46;100134.00;;;16.83
70123;BMP280;57489;37.404;24.920;2024-01-15T04:19:48;100127.31;;;16.86
70123;BMP280;57489;37.404;24.920;2024-01-15T04:24:51;100126.25;;;16.87
70123;BMP280;57489;37.404;24.920;2024-01-15T04:29:53;100121.53;;;16.84
70123;BMP280;57489;37.404;24.920;2024-01-15T04:34:55;100128.53;;;16.80
70123;BMP280;57489;37.404;24.920;2024-01-15T04:39:58;100130.38;;;16.79
70123;BMP280;57489;37.404;24.920;2024-01-15T04:45:00;100124.28;;;16.78
70123;BMP280;57489;37.404;24.920;2024-01-15T04:50:02;100128.31;;;16.76
70123;BMP280;57489;37.404;24.920;2024-01-15T04:55:06;100133.03;;;16.79
70123;BMP280;57489;37.404;24.920;2024-01-15T05:00:09;100132.44;;;16.82
70123;BMP280;57489;37.404;24.920;2024-01-15T05:05:12;100125.28;;;16.83
70123;BMP280;57489;37.404;24.920;2024-01-15T05:10:16;100129.59;;;16.78
70123;BMP280;57489;37.404;24.920;2024-01-15T05:15:17;100133.41;;;16.86
70123;BMP280;57489;37.404;24.920;2024-01-15T05:20:20;100145.66;;;17.10
70123;BMP280;57489;37.404;24.920;2024-01-15T05:25:23;100149.06;;;17.24
70123;BMP280;57489;37.404;24.920;2024-01-15T05:30:25;100137.81;;;17.27
70123;BMP280;57489;37.404;24.920;2024-01-15T05:35:27;100143.34;;;17.31
70123;BMP280;57489;37.404;24.920;2024-01-15T05:40:30;100130.31;;;17.43
70123;BMP280;57489;37.404;24.920;2024-01-15T05:45:34;100127.84;;;17.46
70123;BMP280;57489;37.404;24.920;2024-01-15T05:50:36;100132.56;;;17.13
70123;BMP280;57489;37.404;24.920;2024-01-15T05:55:40;100133.78;;;16.93
70123;BMP280;57489;37.404;24.920;2024-01-15T06:00:42;100138.25;;;16.84
70123;BMP280;57489;37.404;24.920;2024-01-15T06:05:44;100133.03;;;16.79
70123;BMP280;57489;37.404;24.920;2024-01-15T06:10:47;100124.59;;;16.77
70123;BMP280;57489;37.404;24.920;2024-01-15T06:15:49;100133.84;;;16.80
70123;BMP280;57489;37.404;24.920;2024-01-15T06:20:51;100128.09;;;16.86
70123;BMP280;57489;37.404;24.920;2024-01-15T06:25:54;100123.16;;;17.07
70123;BMP280;57489;37.404;24.920;2024-01-15T06:30:57;100127.38;;;17.44
70123;BMP280;57489;37.404;24.920;2024-01-15T06:35:59;100135.91;;;17.64
70123;BMP280;57489;37.404;24.920;2024-01-15T06:41:03;100123.09;;;17.79
70123;BMP280;57489;37.404;24.920;2024-01-15T06:46:05;100135.66;;;17.51
70123;BMP280;57489;37.404;24.920;2024-01-15T06:51:06;100126.81;;;17.34
70123;BMP280;57489;37.404;24.920;2024-01-15T06:56:10;100134.13;;;17.28
70123;BMP280;57489;37.404;24.920;2024-01-15T07:01:12;100134.59;;;17.30
70123;BMP280;57489;37.404;24.920;2024-01-15T07:06:14;100150.47;;;17.44
70123;BMP280;57489;37.404;24.920;2024-01-15T07:11:19;100146.16;;;18.01
70123;BMP280;57489;37.404;24.920;2024-01-15T07:16:22;100138.03;;;18.06
70123;BMP280;57489;37.404;24.920;2024-01-15T07:21:24;100141.34;;;18.12
70123;BMP280;57489;37.404;24.920;2024-01-15T07:26:27;100147.03;;;18.19
70123;BMP280;57489;37.404;24.920;2024-01-15T07:31:29;100142.44;;;18.20
70123;BMP280;57489;37.404;24.920;2024-01-15T07:36:31;100142.81;;;18.27
70123;BMP280;57489;37.404;24.920;2024-01-15T07:41:34;100147.97;;;18.23
70123;BMP280;57489;37.404;24.920;2024-01-15T07:46:36;100164.59;;;18.46
70123;BMP280;57489;37.404;24.920;2024-01-15T07:51:39;100161.34;;;18.49
70123;BMP280;57489;37.404;24.920;2024-01-15T07:56:56;100179.19;;;18.57
70123;BMP280;57489;37.404;24.920;2024-01-15T08:01:59;100174.75;;;18.44
70123;BMP280;57489;37.404;24.920;2024-01-15T08:07:01;100179.44;;;18.39
70123;BMP280;57489;37.404;24.920;2024-01-15T08:12:05;100188.47;;;18.29
70123;BMP280;57489;37.404;24.920;2024-01-15T08:17:07;100190.69;;;18.44
70123;BMP280;57489;37.404;24.920;2024-01-15T08:22:09;100176.28;;;18.28
70123;BMP280;57489;37.404;24.920;2024-01-15T08:27:12;100197.59;;;18.45
70123;BMP280;57489;37.404;24.920;2024-01-15T08:32:14;100189.75;;;18.40
70123;BMP280;57489;37.404;24.920;2024-01-15T08:37:17;100182.50;;;18.32
70123;BMP280;57489;37.404;24.920;2024-01-15T08:42:20;100174.16;;;18.47
70123;BMP280;57489;37.404;24.920;2024-01-15T08:47:22;100176.31;;;18.45
70123;BMP280;57489;37.404;24.920;2024-01-15T08:52:25;100178.41;;;18.57
70123;BMP280;57489;37.404;24.920;2024-01-15T08:57:28;100170.66;;;18.87
70123;BMP280;57489;37.404;24.920;2024-01-15T09:02:30;100156.13;;;19.01
70123;BMP280;57489;37.404;24.920;2024-01-15T09:07:32;100159.69;;;18.79
70123;BMP280;57489;37.404;24.920;2024-01-15T09:12:35;100161.56;;;18.70
70123;BMP280;57489;37.404;24.920;2024-01-15T09:17:38;100146.72;;;18.95
70123;BMP280;57489;37.404;24.920;2024-01-15T09:22:40;100135.47;;;19.24
70123;BMP280;57489;37.404;24.920;2024-01-15T09:27:44;100132.84;;;19.16
70123;BMP280;57489;37.404;24.920;2024-01-15T09:32:46;100117.34;;;19.35
70123;BMP280;57489;37.404;24.920;2024-01-15T09:37:48;100118.28;;;19.22
70123;BMP280;57489;37.404;24.920;2024-01-15T09:42:51;100116.25;;;18.84
70123;BMP280;57489;37.404;24.920;2024-01-15T09:47:54;100101.81;;;19.37
70123;BMP280;57489;37.404;24.920;2024-01-15T09:52:56;100094.66;;;19.20
70123;BMP280;57489;37.404;24.920;2024-01-15T09:58:00;100077.63;;;19.13
70123;BMP280;57489;37.404;24.920;2024-01-15T10:03:03;100079.00;;;19.01
70123;BMP280;57489;37.404;24.920;2024-01-15T10:08:05;100067.28;;;19.02
70123;BMP280;57489;37.404;24.920;2024-01-15T10:13:09;100069.78;;;18.81
70123;BMP280;57489;37.404;24.920;2024-01-15T10:18:11;100065.91;;;18.79
70123;BMP280;57489;37.404;24.920;2024-01-15T10:23:14;100057.28;;;18.99
70123;BMP280;57489;37.404;24.920;2024-01-15T10:28:19;100051.16;;;18.73
70123;BMP280;57489;37.404;24.920;2024-01-15T10:33:22;100052.09;;;18.68
70123;BMP280;57489;37.404;24.920;2024-01-15T10:38:26;100032.56;;;18.55
70123;BMP280;57489;37.404;24.920;2024-01-15T10:43:29;100030.06;;;18.68
70123;BMP280;57489;37.404;24.920;2024-01-15T10:48:31;100021.19;;;18.81
70123;BMP280;57489;37.404;24.920;2024-01-15T10:53:37;100025.38;;;18.99
70123;BMP280;57489;37.404;24.920;2024-01-15T10:58:41;100022.72;;;18.82
70123;BMP280;57489;37.404;24.920;2024-01-15T11:03:44;100024.13;;;18.71
70123;BMP280;57489;37.404;24.920;2024-01-15T11:08:48;100007.25;;;18.84
70123;BMP280;57489;37.404;24.920;2024-01-15T11:13:52;100004.28;;;18.77
70123;BMP280;57489;37.404;24.920;2024-01-15T11:19:05;99989.13;;;18.51
70123;BMP280;57489;37.404;24.920;2024-01-15T11:24:08;99981.94;;;18.43
70123;BMP280;57489;37.404;24.920;2024-01-15T11:29:31;99975.34;;;18.32
70123;BMP280;57489;37.404;24.920;2024-01-15T11:34:57;99972.84;;;18.27
70123;BMP280;57489;37.404;24.920;2024-01-15T11:40:02;99970.66;;;18.20
70123;BMP280;57489;37.404;24.920;2024-01-15T11:45:07;99958.81;;;18.18
70123;BMP280;57489;37.404;24.920;2024-01-15T11:50:09;99951.59;;;18.10
70123;BMP280;57489;37.404;24.920;2024-01-15T11:55:16;99938.75;;;18.03
70123;BMP280;57489;37.404;24.920;2024-01-15T12:00:22;99938.63;;;17.99
70123;BMP280;57489;37.404;24.920;2024-01-15T12:05:25;99940.50;;;17.99
70123;BMP280;57489;37.404;24.920;2024-01-15T12:10:27;99938.13;;;17.97
70123;BMP280;57489;37.404;24.920;2024-01-15T12:15:31;99946.66;;;17.86
70123;BMP280;57489;37.404;24.920;2024-01-15T12:20:34;99937.81;;;17.90
70123;BMP280;57489;37.404;24.920;2024-01-15T12:25:36;99925.94;;;17.79
70123;BMP280;57489;37.404;24.920;2024-01-15T12:30:40;99928.09;;;17.77
70123;BMP280;57489;37.404;24.920;2024-01-15T12:35:43;99920.63;;;17.79
70123;BMP280;57489;37.404;24.920;2024-01-15T12:40:45;99920.34;;;17.89
70123;BMP280;57489;37.404;24.920;2024-01-15T12:45:50;99918.75;;;17.79
70123;BMP280;57489;37.404;24.920;2024-01-15T12:50:52;99920.28;;;17.72
70123;BMP280;57489;37.404;24.920;2024-01-15T12:55:54;99919.34;;;17.68
70123;BMP280;57489;37.404;24.920;2024-01-15T13:00:57;99916.09;;;17.79
70123;BMP280;57489;37.404;24.920;2024-01-15T13:06:00;99916.09;;;17.79
70123;BMP280;57489;37.404;24.920;2024-01-15T13:11:01;99915.31;;;17.79
70123;BMP280;57489;37.404;24.920;2024-01-15T13:16:05;99902.34;;;17.77
70123;BMP280;57489;37.404;24.920;2024-01-15T13:21:08;99901.09;;;17.75
70123;BMP280;57489;37.404;24.920;2024-01-15T13:26:10;99910.94;;;17.83
70123;BMP280;57489;37.404;24.920;2024-01-15T13:31:14;99898.78;;;18.34
70123;BMP280;57489;37.404;24.920;2024-01-15T13:36:16;99887.53;;;18.46
70123;BMP280;57489;37.404;24.920;2024-01-15T13:41:18;99888.63;;;18.53
70123;BMP280;57489;37.404;24.920;2024-01-15T13:46:24;99880.66;;;18.53
70123;BMP280;57489;37.404;24.920;2024-01-15T13:51:26;99884.88;;;18.54
70123;BMP280;57489;37.404;24.920;2024-01-15T13:56:28;99876.28;;;18.57
70123;BMP280;57489;37.404;24.920;2024-01-15T14:01:34;99863.31;;;18.56
70123;BMP280;57489;37.404;24.920;2024-01-15T14:06:36;99857.38;;;18.59
70123;BMP280;57489;37.404;24.920;2024-01-15T14:11:38;99855.03;;;18.57
70123;BMP280;57489;37.404;24.920;2024-01-15T14:16:42;99854.28;;;18.22
70123;BMP280;57489;37.404;24.920;2024-01-15T14:21:44;99853.03;;;18.20
70123;BMP280;57489;37.404;24.920;2024-01-15T14:26:46;99844.16;;;18.16
70123;BMP280;57489;37.404;24.920;2024-01-15T14:31:49;99841.81;;;18.14
70123;BMP280;57489;37.404;24.920;2024-01-15T14:36:56;99862.28;;;18.14
70123;BMP280;57489;37.404;24.920;2024-01-15T14:41:59;99857.06;;;18.34
70123;BMP280;57489;37.404;24.920;2024-01-15T14:47:02;99867.97;;;18.76
70123;BMP280;57489;37.404;24.920;2024-01-15T14:52:04;99844.66;;;19.20
70123;BMP280;57489;37.404;24.920;2024-01-15T14:57:07;99846.78;;;19.56
70123;BMP280;57489;37.404;24.920;2024-01-15T15:02:10;99829.22;;;19.55
70123;BMP280;57489;37.404;24.920;2024-01-15T15:07:12;99825.25;;;19.49
70123;BMP280;57489;37.404;24.920;2024-01-15T15:12:14;99823.66;;;19.48
70123;BMP280;57489;37.404;24.920;2024-01-15T15:17:17;99819.50;;;19.38
70123;BMP280;57489;37.404;24.920;2024-01-15T15:22:20;99820.53;;;19.46
70123;BMP280;57489;37.404;24.920;2024-01-15T15:27:22;99812.13;;;19.44
70123;BMP280;57489;37.404;24.920;2024-01-15T15:32:25;99804.97;;;19.36
70123;BMP280;57489;37.404;24.920;2024-01-15T15:37:27;99815.94;;;19.34
70123;BMP280;57489;37.404;24.920;2024-01-15T15:42:30;99808.44;;;19.28
70123;BMP280;57489;37.404;24.920;2024-01-15T15:47:34;99796.63;;;19.17
70123;BMP280;57489;37.404;24.920;2024-01-15T15:52:35;99801.66;;;19.09
70123;BMP280;57489;37.404;24.920;2024-01-15T15:57:37;99802.69;;;18.96
70123;BMP280;57489;37.404;24.920;2024-01-15T16:02:41;99800.38;;;18.86
70123;BMP280;57489;37.404;24.920;2024-01-15T16:07:43;99808.56;;;19.10
70123;BMP280;57489;37.404;24.920;2024-01-15T16:12:45;99817.44;;;19.44
70123;BMP280;57489;37.404;24.920;2024-01-15T16:17:48;99805.28;;;19.76
70123;BMP280;57489;37.404;24.920;2024-01-15T16:22:50;99809.25;;;19.91
70123;BMP280;57489;37.404;24.920;2024-01-15T16:27:53;99798.59;;;19.91
70123;BMP280;57489;37.404;24.920;2024-01-15T16:32:56;99794.81;;;19.92
70123;BMP280;57489;37.404;24.920;2024-01-15T16:37:58;99796.59;;;19.88
70123;BMP280;57489;37.404;24.920;2024-01-15T16:43:00;99787.31;;;19.73
70123;BMP280;57489;37.404;24.920;2024-01-15T16:48:04;99783.59;;;19.66
70123;BMP280;57489;37.404;24.920;2024-01-15T16:53:07;99798.09;;;19.56
70123;BMP280;57489;37.404;24.920;2024-01-15T16:58:09;99793.13;;;19.46
70123;BMP280;57489;37.404;24.920;2024-01-15T17:03:13;99798.09;;;19.35
70123;BMP280;57489;37.404;24.920;2024-01-15T17:08:15;99795.47;;;19.26
70123;BMP280;57489;37.404;24.920;2024-01-15T17:13:18;99782.38;;;19.21
70123;BMP280;57489;37.404;24.920;2024-01-15T17:18:21;99766.75;;;19.20
70123;BMP280;57489;37.404;24.920;2024-01-15T17:23:23;99768.34;;;19.12
70123;BMP280;57489;37.404;24.920;2024-01-15T17:28:25;99771.41;;;19.23
70123;BMP280;57489;37.404;24.920;2024-01-15T17:33:28;99765.38;;;19.55
70123;BMP280;57489;37.404;24.920;2024-01-15T17:38:30;99750.28;;;20.13
70123;BMP280;57489;37.404;24.920;2024-01-15T17:43:33;99757.66;;;20.65
70123;BMP280;57489;37.404;24.920;2024-01-15T17:48:38;99749.06;;;20.84
70123;BMP280;57489;37.404;24.920;2024-01-15T17:53:40;99790.31;;;20.87
70123;BMP280;57489;37.404;24.920;2024-01-15T17:58:44;99778.78;;;20.83
70123;BMP280;57489;37.404;24.920;2024-01-15T18:03:48;99756.19;;;20.80
70123;BMP280;57489;37.404;24.920;2024-01-15T18:08:50;99758.31;;;20.87
70123;BMP280;57489;37.404;24.920;2024-01-15T18:13:52;99739.22;;;20.73
70123;BMP280;57489;37.404;24.920;2024-01-15T18:18:55;99734.34;;;20.62
70123;BMP280;57489;37.404;24.920;2024-01-15T18:23:57;99731.91;;;20.45
70123;BMP280;57489;37.404;24.920;2024-01-15T18:28:59;99712.50;;;20.11
70123;BMP280;57489;37.404;24.920;2024-01-15T18:34:02;99708.97;;;20.07
70123;BMP280;57489;37.404;24.920;2024-01-15T18:39:04;99702.53;;;19.96
70123;BMP280;57489;37.404;24.920;2024-01-15T18:44:07;99699.56;;;19.64
70123;BMP280;57489;37.404;24.920;2024-01-15T18:49:12;99712.81;;;19.52
70123;BMP280;57489;37.404;24.920;2024-01-15T18:54:14;99711.28;;;19.51
70123;BMP280;57489;37.404;24.920;2024-01-15T18:59:16;99701.91;;;19.66
70123;BMP280;57489;37.404;24.920;2024-01-15T19:04:19;99703.31;;;19.63
70123;BMP280;57489;37.404;24.920;2024-01-15T19:09:21;99695.69;;;19.62
70123;BMP280;57489;37.404;24.920;2024-01-15T19:14:25;99689.88;;;19.93
70123;BMP280;57489;37.404;24.920;2024-01-15T19:19:31;99698.53;;;19.90
70123;BMP280;57489;37.404;24.920;2024-01-15T19:24:37;99694.19;;;19.85
70123;BMP280;57489;37.404;24.920;2024-01-15T19:29:39;99682.75;;;19.85
70123;BMP280;57489;37.404;24.920;2024-01-15T19:34:42;99690.41;;;19.86
70123;BMP280;57489;37.404;24.920;2024-01-15T19:39:45;99679.66;;;19.83
70123;BMP280;57489;37.404;24.920;2024-01-15T19:44:47;99659.44;;;19.82
70123;BMP280;57489;37.404;24.920;2024-01-15T19:49:53;99663.22;;;19.81
70123;BMP280;57489;37.404;24.920;2024-01-15T19:54:55;99646.38;;;19.89
70123;BMP280;57489;37.404;24.920;2024-01-15T19:59:56;99647.47;;;19.76
70123;BMP280;57489;37.404;24.920;2024-01-15T20:05:00;99652.34;;;19.74
70123;BMP280;57489;37.404;24.920;2024-01-15T20:10:02;99644.56;;;19.69
70123;BMP280;57489;37.404;24.920;2024-01-15T20:15:05;99634.13;;;19.63
70123;BMP280;57489;37.404;24.920;2024-01-15T20:20:09;99638.13;;;19.57
70123;BMP280;57489;37.404;24.920;2024-01-15T20:25:12;99624.34;;;19.68
70123;BMP280;57489;37.404;24.920;2024-01-15T20:30:14;99635.00;;;19.68
70123;BMP280;57489;37.404;24.920;2024-01-15T20:35:17;99629.59;;;19.64
70123;BMP280;57489;37.404;24.920;2024-01-15T20:40:19;99605.00;;;19.79
70123;BMP280;57489;37.404;24.920;2024-01-15T20:45:21;99618.44;;;20.07
70123;BMP280;57489;37.404;24.920;2024-01-15T20:50:24;99590.81;;;20.36
70123;BMP280;57489;37.404;24.920;2024-01-15T20:55:26;99598.78;;;20.77
70123;BMP280;57489;37.404;24.920;2024-01-15T21:00:28;99595.97;;;20.85
70123;BMP280;57489;37.404;24.920;2024-01-15T21:05:32;99591.84;;;20.88
70123;BMP280;57489;37.404;24.920;2024-01-15T21:10:34;99586.31;;;20.81
70123;BMP280;57489;37.404;24.920;2024-01-15T21:15:36;99577.03;;;20.75
70123;BMP280;57489;37.404;24.920;2024-01-15T21:20:40;99587.16;;;20.69
70123;BMP280;57489;37.404;24.920;2024-01-15T21:25:42;99570.63;;;20.63
70123;BMP280;57489;37.404;24.920;2024-01-15T21:30:44;99548.88;;;20.61
70123;BMP280;57489;37.404;24.920;2024-01-15T21:35:48;99548.66;;;20.54
70123;BMP280;57489;37.404;24.920;2024-01-15T21:40:50;99546.66;;;20.51
70123;BMP280;57489;37.404;24.920;2024-01-15T21:45:52;99551.44;;;20.46
70123;BMP280;57489;37.404;24.920;2024-01-15T21:50:56;99542.69;;;20.33
70123;BMP280;57489;37.404;24.920;2024-01-15T21:55:58;99543.94;;;20.35
70123;BMP280;57489;37.404;24.920;2024-01-15T22:01:00;99526.50;;;20.26
70123;BMP280;57489;37.404;24.920;2024-01-15T22:06:04;99527.41;;;20.30
70123;BMP280;57489;37.404;24.920;2024-01-15T22:11:06;99503.78;;;20.16
70123;BMP280;57489;37.404;24.920;2024-01-15T22:16:09;99504.16;;;20.14
70123;BMP280;57489;37.404;24.920;2024-01-15T22:21:13;99525.47;;;20.02
70123;BMP280;57489;37.404;24.920;2024-01-15T22:26:15;99506.41;;;19.88
70123;BMP280;57489;37.404;24.920;2024-01-15T22:31:17;99519.25;;;19.86
70123;BMP280;57489;37.404;24.920;2024-01-15T22:36:21;99492.88;;;19.93
70123;BMP280;57489;37.404;24.920;2024-01-15T22:41:23;99486.19;;;19.87
70123;BMP280;57489;37.404;24.920;2024-01-15T22:46:25;99502.28;;;19.78
70123;BMP280;57489;37.404;24.920;2024-01-15T22:51:28;99512.13;;;19.78
70123;BMP280;57489;37.404;24.920;2024-01-15T22:56:30;99501.38;;;19.86
70123;BMP280;57489;37.404;24.920;2024-01-15T23:01:33;99471.75;;;20.00
70123;BMP280;57489;37.404;24.920;2024-01-15T23:06:36;99470.09;;;19.96
70123;BMP280;57489;37.404;24.920;2024-01-15T23:11:38;99480.88;;;19.50
70123;BMP280;57489;37.404;24.920;2024-01-15T23:16:41;99474.22;;;19.32
70123;BMP280;57489;37.404;24.920;2024-01-15T23:21:44;99490.59;;;19.22
70123;BMP280;57489;37.404;24.920;2024-01-15T23:26:46;99473.53;;;19.10
70123;BMP280;57489;37.404;24.920;2024-01-15T23:31:48;99454.31;;;19.05
70123;BMP280;57489;37.404;24.920;2024-01-15T23:36:51;99464.75;;;18.98
70123;BMP280;57489;37.404;24.920;2024-01-15T23:41:53;99466.03;;;18.92
70123;BMP280;57489;37.404;24.920;2024-01-15T23:46:55;99457.63;;;18.90
70123;BMP280;57489;37.404;24.920;2024-01-15T23:51:58;99457.50;;;18.86
70123;BMP280;57489;37.404;24.920;2024-01-15T23:57:00;99474.75;;;18.80
